Time;durP1;ratioP1;P1;durP2;ratioP2;P2;SDS_P1;SDS_P2;PMS_P1;PMS_P2;Temp;Humidity;BMP_temperature;BMP_pressure;BME280_temperature;BME280_humidity;BME280_pressure;Samples;Min_cycle;Max_cycle;Signal;HPM_P1;HPM_P2
2022/05/27 00:00:33;;;;;;;;;;;14.70;95.10;;;;;;4957708;29;19965;-69
2022/05/27 00:03:00;;;;;;;;;;;14.70;95.10;;;;;;4957367;29;19915;-69
2022/05/27 00:05:27;;;;;;;;;;;14.80;95.10;;;;;;4940216;29;19953;-69
2022/05/27 00:07:53;;;;;;;;;;;14.80;94.90;;;;;;4957756;29;19929;-69
2022/05/27 00:10:20;;;;;;;;;;;14.80;94.90;;;;;;4957647;29;20254;-69
2022/05/27 00:12:46;;;;;;;;;;;14.80;94.90;;;;;;4957682;29;19979;-68
2022/05/27 00:15:13;;;;;;;;;;;14.90;94.80;;;;;;4957346;29;20045;-68
2022/05/27 00:17:40;;;;;;;;;;;14.90;94.80;;;;;;4957702;29;19914;-69
2022/05/27 00:20:10;;;;;;;;;;;14.90;94.70;;;;;;4956971;28;20297;-68
2022/05/27 00:22:37;;;;;;;;;;;15.00;94.60;;;;;;4957006;29;20254;-68
2022/05/27 00:25:04;;;;;;;;;;;15.00;94.50;;;;;;4957083;29;20378;-68
2022/05/27 00:27:30;;;;;;;;;;;15.10;94.50;;;;;;4957596;29;19969;-68
2022/05/27 00:29:57;;;;;;;;;;;15.10;94.40;;;;;;4957050;29;19914;-68
2022/05/27 00:32:23;;;;;;;;;;;15.10;94.30;;;;;;4957220;29;19906;-68
2022/05/27 00:34:50;;;;;;;;;;;15.20;94.30;;;;;;4956875;29;20357;-68
2022/05/27 00:37:16;;;;;;;;;;;15.20;94.20;;;;;;4939461;29;19918;-68
2022/05/27 00:39:43;;;;;;;;;;;15.20;93.90;;;;;;4957279;29;20345;-68
2022/05/27 00:42:10;;;;;;;;;;;15.20;93.90;;;;;;4939402;29;19976;-68
2022/05/27 00:44:36;;;;;;;;;;;15.30;93.80;;;;;;4956638;29;20309;-68
2022/05/27 00:47:07;;;;;;;;;;;15.30;93.70;;;;;;4956786;29;20425;-68
2022/05/27 00:49:34;;;;;;;;;;;15.30;93.60;;;;;;4956747;29;20341;-68
2022/05/27 00:52:10;;;;;;;;;;;15.40;93.50;;;;;;4956923;29;19970;-68
2022/05/27 00:54:37;;;;;;;;;;;15.40;93.40;;;;;;4939381;29;19942;-68
2022/05/27 00:57:05;;;;;;;;;;;15.50;93.20;;;;;;4956577;29;20353;-68
2022/05/27 00:59:37;;;;;;;;;;;15.50;93.10;;;;;;4956776;29;19913;-68
2022/05/27 01:02:03;;;;;;;;;;;15.50;93.10;;;;;;4938879;29;19923;-68
2022/05/27 01:04:30;;;;;;;;;;;15.50;93.00;;;;;;4939251;29;20005;-68
2022/05/27 01:06:56;;;;;;;;;;;15.60;92.70;;;;;;4939462;29;19997;-68
2022/05/27 01:09:23;;;;;;;;;;;15.70;92.70;;;;;;4956644;29;19910;-68
2022/05/27 01:12:15;;;;;;;;;;;15.70;92.60;;;;;;4938646;29;19907;-68
2022/05/27 01:14:44;;;;;;;;;;;15.70;92.30;;;;;;4956405;29;19906;-68
2022/05/27 01:17:23;;;;;;;;;;;15.80;92.10;;;;;;4939261;29;20373;-68
2022/05/27 01:22:58;;;;;;;;;;;15.90;91.80;;;;;;4956225;29;19953;-68
2022/05/27 01:25:29;;;;;;;;;;;15.80;91.50;;;;;;4956049;29;19914;-68
2022/05/27 01:28:13;;;;;;;;;;;15.90;91.40;;;;;;4955954;29;20322;-68
2022/05/27 01:30:42;;;;;;;;;;;16.00;91.40;;;;;;4955938;29;19906;-68
2022/05/27 01:33:21;;;;;;;;;;;16.00;91.40;;;;;;4939061;29;19918;-68
2022/05/27 01:36:06;;;;;;;;;;;16.00;91.20;;;;;;4956371;29;20001;-68
2022/05/27 01:38:36;;;;;;;;;;;16.00;91.10;;;;;;4955952;29;20050;-68
2022/05/27 01:41:02;;;;;;;;;;;16.10;91.00;;;;;;4955829;29;19911;-68
2022/05/27 01:43:42;;;;;;;;;;;16.20;91.00;;;;;;4955958;29;20005;-68
2022/05/27 01:46:08;;;;;;;;;;;16.20;91.10;;;;;;4955656;29;19910;-68
2022/05/27 01:48:55;;;;;;;;;;;16.20;90.90;;;;;;4955881;29;19929;-68
2022/05/27 01:51:24;;;;;;;;;;;16.20;90.90;;;;;;4955189;29;19906;-68
2022/05/27 01:53:54;;;;;;;;;;;16.20;90.60;;;;;;4956115;29;19906;-68
2022/05/27 01:56:21;;;;;;;;;;;16.30;90.60;;;;;;4938579;29;20281;-68
2022/05/27 01:58:49;;;;;;;;;;;16.30;90.40;;;;;;4955764;29;19913;-68
2022/05/27 02:01:19;;;;;;;;;;;16.40;90.30;;;;;;4937771;29;19914;-68
2022/05/27 02:03:50;;;;;;;;;;;16.40;90.00;;;;;;4938244;29;20589;-68
2022/05/27 02:06:20;;;;;;;;;;;16.40;89.70;;;;;;4937903;29;19934;-68
2022/05/27 02:08:52;;;;;;;;;;;16.40;89.80;;;;;;4955645;29;19907;-68
2022/05/27 02:11:22;;;;;;;;;;;16.40;89.70;;;;;;4955414;29;19962;-68
2022/05/27 02:13:58;;;;;;;;;;;16.40;89.50;;;;;;4955202;29;20373;-69
2022/05/27 02:16:26;;;;;;;;;;;16.40;89.60;;;;;;4955408;29;19907;-69
2022/05/27 02:18:57;;;;;;;;;;;16.50;89.80;;;;;;4937991;29;19989;-69
2022/05/27 02:21:27;;;;;;;;;;;16.50;89.60;;;;;;4953917;29;19918;-69
2022/05/27 02:23:58;;;;;;;;;;;16.60;89.50;;;;;;4955118;28;20012;-69
2022/05/27 02:26:25;;;;;;;;;;;16.60;89.60;;;;;;4955153;28;19910;-69
2022/05/27 02:29:02;;;;;;;;;;;16.60;89.40;;;;;;4955523;28;19910;-69
2022/05/27 02:31:30;;;;;;;;;;;16.60;89.60;;;;;;4954182;29;20388;-69
2022/05/27 02:36:46;;;;;;;;;;;16.70;89.40;;;;;;4955158;29;19918;-69
2022/05/27 02:39:13;;;;;;;;;;;16.70;89.30;;;;;;4953881;29;19914;-69
2022/05/27 02:41:56;;;;;;;;;;;16.70;89.20;;;;;;4937485;29;20383;-69
2022/05/27 02:44:23;;;;;;;;;;;16.70;89.00;;;;;;4938315;29;19914;-69
2022/05/27 02:46:56;;;;;;;;;;;16.80;88.80;;;;;;4955115;28;19907;-69
2022/05/27 02:49:23;;;;;;;;;;;16.80;88.70;;;;;;4953418;29;19954;-69
2022/05/27 02:51:55;;;;;;;;;;;16.90;88.70;;;;;;4953374;28;19910;-69
2022/05/27 02:54:34;;;;;;;;;;;17.00;88.60;;;;;;4954520;28;19910;-69
2022/05/27 02:57:00;;;;;;;;;;;17.00;88.80;;;;;;4953654;29;19912;-69
2022/05/27 02:59:27;;;;;;;;;;;17.00;89.00;;;;;;4954663;28;20322;-68
2022/05/27 03:01:53;;;;;;;;;;;17.00;89.00;;;;;;4953153;29;20280;-69
2022/05/27 03:04:20;;;;;;;;;;;17.00;88.90;;;;;;4954713;28;20420;-69
2022/05/27 03:06:53;;;;;;;;;;;17.10;88.80;;;;;;4954683;28;19907;-69
2022/05/27 03:09:22;;;;;;;;;;;17.10;88.90;;;;;;4953457;29;19906;-69
2022/05/27 03:12:11;;;;;;;;;;;17.20;88.70;;;;;;4969412;28;19909;-70
2022/05/27 03:14:44;;;;;;;;;;;17.20;88.60;;;;;;4956282;28;19918;-71
2022/05/27 03:17:10;;;;;;;;;;;17.30;88.50;;;;;;4954352;28;19906;-70
2022/05/27 03:19:55;;;;;;;;;;;17.30;88.30;;;;;;4959696;28;19914;-70
2022/05/27 03:22:22;;;;;;;;;;;17.30;88.40;;;;;;4973535;28;20461;-70
2022/05/27 03:25:08;;;;;;;;;;;17.40;87.80;;;;;;4972834;28;19909;-70
2022/05/27 03:27:53;;;;;;;;;;;17.40;88.20;;;;;;4972820;28;20031;-69
2022/05/27 03:30:25;;;;;;;;;;;17.40;88.10;;;;;;4973500;28;19913;-69
2022/05/27 03:33:10;;;;;;;;;;;17.40;87.80;;;;;;4988145;28;20265;-69
2022/05/27 03:35:40;;;;;;;;;;;17.50;87.60;;;;;;4973473;28;20349;-70
2022/05/27 03:38:15;;;;;;;;;;;17.50;87.40;;;;;;4973311;28;19906;-71
2022/05/27 03:40:49;;;;;;;;;;;17.60;86.80;;;;;;4983113;28;19914;-71
2022/05/27 03:43:15;;;;;;;;;;;17.70;85.90;;;;;;4968794;28;20216;-71
2022/05/27 03:45:52;;;;;;;;;;;17.70;86.00;;;;;;4968725;28;19993;-71
2022/05/27 03:48:19;;;;;;;;;;;17.70;86.10;;;;;;4968719;28;19941;-71
2022/05/27 03:50:46;;;;;;;;;;;17.70;86.30;;;;;;4968905;28;20281;-71
2022/05/27 03:53:12;;;;;;;;;;;17.70;86.40;;;;;;4969039;28;19957;-71
2022/05/27 03:55:44;;;;;;;;;;;17.80;86.10;;;;;;4936762;29;20386;-72
2022/05/27 03:58:12;;;;;;;;;;;17.80;85.40;;;;;;4953886;29;19907;-71
2022/05/27 04:00:39;;;;;;;;;;;17.80;85.70;;;;;;4953888;29;20354;-73
2022/05/27 04:03:06;;;;;;;;;;;17.80;86.10;;;;;;4968601;28;20362;-70
2022/05/27 04:05:32;;;;;;;;;;;17.70;85.80;;;;;;4953554;29;19910;-69
2022/05/27 04:07:59;;;;;;;;;;;17.80;85.70;;;;;;4953916;29;19911;-70
2022/05/27 04:10:25;;;;;;;;;;;17.80;85.40;;;;;;4953868;29;19906;-70
2022/05/27 04:12:52;;;;;;;;;;;17.80;85.70;;;;;;4953706;29;19906;-70
2022/05/27 04:15:19;;;;;;;;;;;17.80;85.50;;;;;;4953671;29;19906;-70
2022/05/27 04:17:45;;;;;;;;;;;17.80;85.30;;;;;;4968644;28;20299;-70
2022/05/27 04:20:13;;;;;;;;;;;17.90;85.30;;;;;;4953710;28;19949;-70
2022/05/27 04:22:39;;;;;;;;;;;17.90;85.40;;;;;;4953910;29;20005;-70
2022/05/27 04:25:06;;;;;;;;;;;17.90;85.50;;;;;;4953691;29;19907;-70
2022/05/27 04:27:33;;;;;;;;;;;17.90;85.70;;;;;;4953649;29;19913;-70
2022/05/27 04:29:59;;;;;;;;;;;17.90;85.80;;;;;;4955475;28;19917;-71
2022/05/27 04:32:26;;;;;;;;;;;17.90;85.70;;;;;;4956083;28;19913;-71
2022/05/27 04:34:53;;;;;;;;;;;17.90;85.40;;;;;;4956991;29;19917;-70
2022/05/27 04:37:20;;;;;;;;;;;18.00;85.60;;;;;;4940220;29;19997;-70
2022/05/27 04:39:46;;;;;;;;;;;18.00;84.90;;;;;;4957062;29;19907;-70
2022/05/27 04:42:13;;;;;;;;;;;18.00;83.40;;;;;;4956994;29;19921;-70
2022/05/27 04:44:40;;;;;;;;;;;18.10;83.30;;;;;;4939972;29;19962;-71
2022/05/27 04:47:07;;;;;;;;;;;18.10;83.70;;;;;;4957374;29;20309;-71
2022/05/27 04:49:55;;;;;;;;;;;18.10;83.30;;;;;;4940028;29;19910;-70
2022/05/27 04:52:23;;;;;;;;;;;18.10;83.10;;;;;;4956480;29;19917;-71
2022/05/27 04:54:49;;;;;;;;;;;18.20;82.90;;;;;;4939494;29;20312;-70
2022/05/27 04:57:17;;;;;;;;;;;18.20;82.60;;;;;;4939810;29;20286;-71
2022/05/27 04:59:46;;;;;;;;;;;18.20;82.10;;;;;;4939722;29;19934;-70
2022/05/27 05:02:14;;;;;;;;;;;18.30;82.50;;;;;;4956608;29;19954;-71
2022/05/27 05:04:40;;;;;;;;;;;18.20;82.50;;;;;;4956761;29;19964;-70
2022/05/27 05:07:08;;;;;;;;;;;18.30;82.10;;;;;;4956701;29;19916;-71
2022/05/27 05:09:37;;;;;;;;;;;18.30;82.20;;;;;;4939674;29;19907;-71
2022/05/27 05:12:04;;;;;;;;;;;18.30;81.80;;;;;;4956610;29;19906;-70
2022/05/27 05:14:31;;;;;;;;;;;18.30;81.80;;;;;;4956282;29;19910;-70
2022/05/27 05:16:57;;;;;;;;;;;18.30;81.70;;;;;;4939379;29;19917;-70
2022/05/27 05:19:24;;;;;;;;;;;18.30;81.80;;;;;;4956203;28;19918;-70
2022/05/27 05:21:50;;;;;;;;;;;18.30;81.80;;;;;;4954921;28;19910;-70
2022/05/27 05:24:17;;;;;;;;;;;18.30;82.10;;;;;;4955902;29;19906;-71
2022/05/27 05:26:43;;;;;;;;;;;18.30;82.40;;;;;;4938901;29;20005;-71
2022/05/27 05:29:10;;;;;;;;;;;18.20;83.20;;;;;;4956218;29;19913;-70
2022/05/27 05:31:36;;;;;;;;;;;18.10;82.90;;;;;;4955635;29;20281;-71
2022/05/27 05:34:03;;;;;;;;;;;18.10;83.30;;;;;;4955646;29;20953;-71
2022/05/27 05:36:30;;;;;;;;;;;18.10;82.90;;;;;;4955874;29;20321;-71
2022/05/27 05:38:57;;;;;;;;;;;18.10;83.00;;;;;;4955725;29;19906;-71
2022/05/27 05:41:33;;;;;;;;;;;18.10;82.80;;;;;;4954461;28;19972;-71
2022/05/27 05:43:59;;;;;;;;;;;18.20;82.40;;;;;;4938643;29;20339;-71
2022/05/27 05:46:26;;;;;;;;;;;18.20;82.00;;;;;;4954421;28;19913;-70
2022/05/27 05:48:53;;;;;;;;;;;18.10;82.30;;;;;;4955873;29;19906;-71
2022/05/27 05:51:20;;;;;;;;;;;18.00;82.80;;;;;;4955454;29;20386;-71
2022/05/27 05:53:47;;;;;;;;;;;18.00;83.10;;;;;;4938298;29;19907;-70
2022/05/27 05:56:13;;;;;;;;;;;18.00;83.10;;;;;;4938686;29;19906;-70
2022/05/27 05:58:40;;;;;;;;;;;18.00;83.20;;;;;;4938750;29;20339;-70
2022/05/27 06:01:06;;;;;;;;;;;18.10;82.60;;;;;;4955123;29;19973;-70
2022/05/27 06:03:33;;;;;;;;;;;18.00;82.90;;;;;;4938533;29;19915;-70
2022/05/27 06:06:00;;;;;;;;;;;18.00;83.30;;;;;;4955238;29;20340;-70
2022/05/27 06:08:27;;;;;;;;;;;18.00;83.70;;;;;;4938284;29;19910;-70
2022/05/27 06:10:53;;;;;;;;;;;18.00;83.80;;;;;;4938638;29;19941;-70
2022/05/27 06:13:20;;;;;;;;;;;17.90;83.90;;;;;;4955263;29;19906;-70
2022/05/27 06:15:46;;;;;;;;;;;17.90;84.20;;;;;;4955261;29;19906;-70
2022/05/27 06:18:15;;;;;;;;;;;17.90;84.10;;;;;;4955463;29;19985;-70
2022/05/27 06:20:41;;;;;;;;;;;17.90;84.10;;;;;;4954787;28;19918;-70
2022/05/27 06:23:10;;;;;;;;;;;17.80;84.10;;;;;;4954734;29;19969;-70
2022/05/27 06:25:38;;;;;;;;;;;17.80;84.40;;;;;;4955114;29;19910;-70
2022/05/27 06:36:19;;;;;;;;;;;17.80;84.40;;;;;;4938930;29;19970;-71
2022/05/27 06:38:46;;;;;;;;;;;17.70;84.40;;;;;;4938163;29;19917;-71
2022/05/27 06:41:13;;;;;;;;;;;17.70;84.50;;;;;;4955205;29;19958;-70
2022/05/27 06:43:39;;;;;;;;;;;17.70;84.60;;;;;;4954967;29;20013;-71
2022/05/27 06:46:06;;;;;;;;;;;17.70;84.50;;;;;;4937271;29;19914;-71
2022/05/27 06:48:33;;;;;;;;;;;17.70;84.70;;;;;;4954936;29;20002;-71
2022/05/27 06:51:03;;;;;;;;;;;17.60;84.70;;;;;;4954752;29;19932;-71
2022/05/27 06:53:30;;;;;;;;;;;17.60;84.70;;;;;;4954602;28;19906;-71
2022/05/27 06:55:56;;;;;;;;;;;17.60;84.80;;;;;;4954806;29;19949;-70
2022/05/27 06:58:23;;;;;;;;;;;17.50;84.90;;;;;;4954551;29;19957;-70
2022/05/27 07:00:49;;;;;;;;;;;17.50;85.00;;;;;;4954421;29;19906;-70
2022/05/27 07:03:16;;;;;;;;;;;17.50;85.20;;;;;;4954609;29;19919;-70
2022/05/27 07:05:42;;;;;;;;;;;17.50;85.40;;;;;;4953997;29;19906;-70
2022/05/27 07:08:09;;;;;;;;;;;17.50;85.50;;;;;;4954401;29;20293;-70
2022/05/27 07:10:36;;;;;;;;;;;17.50;85.60;;;;;;4954154;29;19965;-70
2022/05/27 07:13:02;;;;;;;;;;;17.50;85.80;;;;;;4954478;29;19941;-70
2022/05/27 07:15:32;;;;;;;;;;;17.40;86.00;;;;;;4936950;29;19926;-70
2022/05/27 07:17:58;;;;;;;;;;;17.40;86.00;;;;;;4937473;29;20361;-70
2022/05/27 07:20:25;;;;;;;;;;;17.40;86.40;;;;;;4953467;28;19918;-70
2022/05/27 07:22:52;;;;;;;;;;;17.40;86.50;;;;;;4953593;29;20385;-70
2022/05/27 07:25:18;;;;;;;;;;;17.40;86.50;;;;;;4953045;28;19953;-70
2022/05/27 07:27:45;;;;;;;;;;;17.40;86.60;;;;;;4953989;29;19954;-70
2022/05/27 07:30:15;;;;;;;;;;;17.30;86.70;;;;;;4954100;29;19906;-70
2022/05/27 07:32:41;;;;;;;;;;;17.30;86.70;;;;;;4953522;29;20009;-70
2022/05/27 07:35:08;;;;;;;;;;;17.30;86.80;;;;;;4953334;29;19910;-70
2022/05/27 07:37:35;;;;;;;;;;;17.30;87.00;;;;;;4953664;29;19902;-70
2022/05/27 07:40:01;;;;;;;;;;;17.30;87.10;;;;;;4953883;29;19953;-71
2022/05/27 07:42:28;;;;;;;;;;;17.30;87.20;;;;;;4953999;29;19914;-70
2022/05/27 07:44:55;;;;;;;;;;;17.30;87.40;;;;;;4954199;29;19913;-70
2022/05/27 07:47:21;;;;;;;;;;;17.30;87.50;;;;;;4954023;29;19907;-70
2022/05/27 07:49:48;;;;;;;;;;;17.30;87.60;;;;;;4953818;29;20269;-70
2022/05/27 07:52:14;;;;;;;;;;;17.30;87.70;;;;;;4953395;29;19914;-71
2022/05/27 07:54:41;;;;;;;;;;;17.30;87.80;;;;;;4954046;29;19912;-70
2022/05/27 07:57:23;;;;;;;;;;;17.30;87.90;;;;;;4954446;29;19913;-70
2022/05/27 07:59:51;;;;;;;;;;;17.30;88.00;;;;;;4953910;29;20013;-71
2022/05/27 08:02:17;;;;;;;;;;;17.30;88.20;;;;;;4937098;29;19914;-71
2022/05/27 08:04:44;;;;;;;;;;;17.30;88.30;;;;;;4955345;28;20200;-71
2022/05/27 08:07:10;;;;;;;;;;;17.30;88.40;;;;;;4957857;29;19914;-70
2022/05/27 08:09:37;;;;;;;;;;;17.30;88.40;;;;;;4957863;29;19911;-71
2022/05/27 08:12:05;;;;;;;;;;;17.20;88.50;;;;;;4940518;29;19914;-71
2022/05/27 08:14:31;;;;;;;;;;;17.20;88.60;;;;;;4956484;28;19965;-71
2022/05/27 08:16:58;;;;;;;;;;;17.20;88.60;;;;;;4940414;29;20022;-71
2022/05/27 08:19:25;;;;;;;;;;;17.20;88.60;;;;;;4957292;28;19914;-71
2022/05/27 08:21:51;;;;;;;;;;;17.20;88.60;;;;;;4957503;29;20372;-70
2022/05/27 08:24:18;;;;;;;;;;;17.20;88.60;;;;;;4957550;29;19907;-70
2022/05/27 08:26:44;;;;;;;;;;;17.20;88.60;;;;;;4957536;29;19964;-70
2022/05/27 08:29:11;;;;;;;;;;;17.20;88.70;;;;;;4940082;29;19917;-70
2022/05/27 08:31:37;;;;;;;;;;;17.20;88.80;;;;;;4957439;29;19997;-71
2022/05/27 08:39:33;;;;;;;;;;;17.20;88.80;;;;;;4957263;29;20415;-70
2022/05/27 08:42:18;;;;;;;;;;;17.20;88.90;;;;;;4957138;29;19907;-70
2022/05/27 08:44:48;;;;;;;;;;;17.10;88.90;;;;;;4957191;29;20325;-71
2022/05/27 08:47:24;;;;;;;;;;;17.10;88.90;;;;;;4956929;29;19907;-69
2022/05/27 08:49:52;;;;;;;;;;;17.10;88.90;;;;;;4957050;29;19954;-69
2022/05/27 08:52:29;;;;;;;;;;;17.10;89.00;;;;;;4939806;29;19914;-70
2022/05/27 08:55:01;;;;;;;;;;;17.10;89.00;;;;;;4939696;29;19907;-71
2022/05/27 09:00:17;;;;;;;;;;;17.10;89.10;;;;;;4957112;29;20057;-70
2022/05/27 09:02:43;;;;;;;;;;;17.00;89.10;;;;;;4939920;29;19914;-70
2022/05/27 09:05:14;;;;;;;;;;;17.00;89.10;;;;;;4954860;28;19906;-71
2022/05/27 09:08:01;;;;;;;;;;;17.00;89.20;;;;;;4956844;29;19992;-71
2022/05/27 09:10:34;;;;;;;;;;;17.00;89.20;;;;;;4956408;29;19906;-71
2022/05/27 09:13:05;;;;;;;;;;;17.00;89.20;;;;;;4939661;29;19906;-70
2022/05/27 09:15:33;;;;;;;;;;;17.00;89.40;;;;;;4939381;29;19966;-71
2022/05/27 09:18:03;;;;;;;;;;;16.90;89.50;;;;;;4939488;29;20365;-71
2022/05/27 09:20:45;;;;;;;;;;;16.90;89.50;;;;;;4951701;28;19929;-71
2022/05/27 09:23:32;;;;;;;;;;;16.90;89.70;;;;;;4975733;28;19918;-71
2022/05/27 09:26:14;;;;;;;;;;;16.80;89.80;;;;;;4958589;28;19906;-71
2022/05/27 09:28:53;;;;;;;;;;;16.80;89.90;;;;;;4975526;28;20299;-71
2022/05/27 09:31:24;;;;;;;;;;;16.80;89.80;;;;;;4975361;28;20004;-71
2022/05/27 09:33:50;;;;;;;;;;;16.80;89.90;;;;;;4958636;28;19913;-70
2022/05/27 09:36:21;;;;;;;;;;;16.80;89.90;;;;;;4958252;28;20019;-70
2022/05/27 09:38:55;;;;;;;;;;;16.80;90.00;;;;;;4958483;28;19906;-70
2022/05/27 09:41:31;;;;;;;;;;;16.70;90.00;;;;;;4958361;28;19968;-71
2022/05/27 09:44:06;;;;;;;;;;;16.70;90.10;;;;;;4975507;28;19957;-71
2022/05/27 09:46:33;;;;;;;;;;;16.70;90.10;;;;;;4958396;28;19910;-71
2022/05/27 09:48:59;;;;;;;;;;;16.70;90.20;;;;;;4958205;28;19997;-71
2022/05/27 09:51:26;;;;;;;;;;;16.70;90.00;;;;;;4975872;28;20016;-71
2022/05/27 09:54:01;;;;;;;;;;;16.70;90.20;;;;;;4975259;28;20273;-70
2022/05/27 09:56:41;;;;;;;;;;;16.70;90.20;;;;;;4957059;28;19906;-70
2022/05/27 09:59:21;;;;;;;;;;;16.70;90.30;;;;;;4975079;28;19910;-70
2022/05/27 10:01:48;;;;;;;;;;;16.60;90.30;;;;;;4957872;28;19906;-70
2022/05/27 10:04:15;;;;;;;;;;;16.60;90.40;;;;;;4975039;28;19913;-70
2022/05/27 10:06:41;;;;;;;;;;;16.60;90.50;;;;;;4957980;28;19912;-70
2022/05/27 10:09:10;;;;;;;;;;;16.60;90.50;;;;;;4957711;28;19957;-70
2022/05/27 10:11:57;;;;;;;;;;;16.50;90.60;;;;;;4974818;28;19906;-70
2022/05/27 10:14:23;;;;;;;;;;;16.50;90.70;;;;;;4974665;28;20279;-70
2022/05/27 10:17:04;;;;;;;;;;;16.50;90.70;;;;;;4974933;28;19914;-70
2022/05/27 10:19:30;;;;;;;;;;;16.50;90.70;;;;;;4970218;28;19930;-70
2022/05/27 10:22:07;;;;;;;;;;;16.50;90.80;;;;;;4955501;29;19912;-70
2022/05/27 10:24:42;;;;;;;;;;;16.50;90.70;;;;;;4955361;29;19966;-71
2022/05/27 10:27:10;;;;;;;;;;;16.50;90.70;;;;;;4954852;28;19916;-71
2022/05/27 10:29:55;;;;;;;;;;;16.50;90.80;;;;;;4955259;29;19913;-70
2022/05/27 10:32:25;;;;;;;;;;;16.50;90.90;;;;;;4955290;29;20302;-71
2022/05/27 10:34:52;;;;;;;;;;;16.40;91.00;;;;;;4955071;29;19917;-70
2022/05/27 10:37:28;;;;;;;;;;;16.40;91.10;;;;;;4955035;29;19960;-71
2022/05/27 10:39:57;;;;;;;;;;;16.40;91.10;;;;;;4955090;29;19906;-70
2022/05/27 10:42:27;;;;;;;;;;;16.40;91.10;;;;;;4937685;29;19941;-70
2022/05/27 10:45:06;;;;;;;;;;;16.40;91.00;;;;;;4954319;28;19915;-70
2022/05/27 10:47:47;;;;;;;;;;;16.40;91.20;;;;;;4937694;29;20272;-70
2022/05/27 10:50:33;;;;;;;;;;;16.40;91.20;;;;;;4937808;29;19914;-70
2022/05/27 10:53:06;;;;;;;;;;;16.40;91.00;;;;;;4906257;29;19907;-70
2022/05/27 10:55:56;;;;;;;;;;;16.40;91.10;;;;;;4937604;29;20006;-70
2022/05/27 11:04:31;;;;;;;;;;;16.30;91.40;;;;;;4939519;29;20012;-71
2022/05/27 11:07:16;;;;;;;;;;;16.30;91.50;;;;;;4954145;29;19910;-70
2022/05/27 11:09:55;;;;;;;;;;;16.30;91.70;;;;;;4953644;28;19910;-70
2022/05/27 11:12:21;;;;;;;;;;;16.30;91.60;;;;;;4954459;29;19949;-71
2022/05/27 11:15:12;;;;;;;;;;;16.30;91.70;;;;;;4954374;29;19906;-70
2022/05/27 11:17:38;;;;;;;;;;;16.30;91.90;;;;;;4938444;29;19906;-70
2022/05/27 11:20:24;;;;;;;;;;;16.30;91.90;;;;;;4953802;28;20009;-70
2022/05/27 11:22:57;;;;;;;;;;;16.30;91.70;;;;;;4953979;29;20023;-70
2022/05/27 11:25:41;;;;;;;;;;;16.30;91.80;;;;;;4954080;29;20001;-70
2022/05/27 11:28:14;;;;;;;;;;;16.30;91.70;;;;;;4954184;29;19914;-70
2022/05/27 11:30:41;;;;;;;;;;;16.20;92.00;;;;;;4954095;29;19907;-70
2022/05/27 11:33:45;;;;;;;;;;;16.20;92.10;;;;;;4953872;29;19906;-70
2022/05/27 11:36:12;;;;;;;;;;;16.20;92.20;;;;;;4857733;29;19956;-70
2022/05/27 11:38:38;;;;;;;;;;;16.20;92.30;;;;;;4935908;29;19911;-71
2022/05/27 11:41:08;;;;;;;;;;;16.20;92.50;;;;;;4954256;29;19906;-70
2022/05/27 11:43:40;;;;;;;;;;;16.20;92.40;;;;;;4954147;29;19914;-70
2022/05/27 11:46:25;;;;;;;;;;;16.10;92.30;;;;;;4953803;29;20005;-71
2022/05/27 11:49:00;;;;;;;;;;;16.10;92.50;;;;;;4954032;29;19911;-70
2022/05/27 11:51:45;;;;;;;;;;;16.10;92.60;;;;;;4954128;29;19910;-70
2022/05/27 11:54:30;;;;;;;;;;;16.10;92.80;;;;;;4953883;29;19911;-70
2022/05/27 11:57:22;;;;;;;;;;;16.20;92.80;;;;;;4953558;29;20014;-70
2022/05/27 12:00:00;;;;;;;;;;;16.20;92.70;;;;;;4948800;28;19906;-70
2022/05/27 12:02:38;;;;;;;;;;;16.10;92.80;;;;;;4936655;29;20009;-70
2022/05/27 12:05:19;;;;;;;;;;;16.10;93.00;;;;;;4953762;29;19910;-70
2022/05/27 12:07:51;;;;;;;;;;;16.10;93.10;;;;;;4936786;29;19911;-71
2022/05/27 12:10:30;;;;;;;;;;;16.10;93.10;;;;;;4953747;29;19910;-70
2022/05/27 12:13:07;;;;;;;;;;;16.10;93.10;;;;;;4954218;29;19929;-71
2022/05/27 12:15:38;;;;;;;;;;;16.20;93.20;;;;;;4936715;29;19977;-70
2022/05/27 12:18:08;;;;;;;;;;;16.10;93.20;;;;;;4936525;29;19906;-70
2022/05/27 12:20:35;;;;;;;;;;;16.10;93.30;;;;;;4949386;28;19918;-70
2022/05/27 12:23:04;;;;;;;;;;;16.10;93.30;;;;;;4972967;28;19924;-70
2022/05/27 12:25:39;;;;;;;;;;;16.10;93.30;;;;;;4955677;28;19996;-70
2022/05/27 12:28:05;;;;;;;;;;;16.10;93.40;;;;;;4955837;28;19953;-70
2022/05/27 12:30:33;;;;;;;;;;;16.10;93.30;;;;;;4955462;28;19906;-70
2022/05/27 12:32:59;;;;;;;;;;;16.00;93.30;;;;;;4955344;28;19977;-70
2022/05/27 12:35:47;;;;;;;;;;;16.00;93.30;;;;;;4955703;28;19914;-70
2022/05/27 12:38:17;;;;;;;;;;;16.00;93.20;;;;;;4924514;28;20333;-70
2022/05/27 12:40:51;;;;;;;;;;;15.90;93.20;;;;;;4955887;28;19906;-70
2022/05/27 12:43:18;;;;;;;;;;;15.90;93.40;;;;;;4972477;28;19914;-71
2022/05/27 12:45:49;;;;;;;;;;;15.80;93.50;;;;;;4972517;28;19913;-71
2022/05/27 12:48:41;;;;;;;;;;;15.90;93.60;;;;;;4972642;28;19947;-70
2022/05/27 12:51:08;;;;;;;;;;;15.80;93.60;;;;;;4950867;28;19918;-71
2022/05/27 12:53:36;;;;;;;;;;;15.80;93.60;;;;;;4956577;29;19945;-71
2022/05/27 13:02:18;;;;;;;;;;;15.70;93.50;;;;;;4956580;29;19918;-71
2022/05/27 13:04:48;;;;;;;;;;;15.70;93.50;;;;;;4956653;29;19950;-71
2022/05/27 13:07:15;;;;;;;;;;;15.70;93.50;;;;;;4956486;29;19993;-71
2022/05/27 13:09:47;;;;;;;;;;;15.60;93.60;;;;;;4955666;29;19907;-71
2022/05/27 13:12:32;;;;;;;;;;;15.60;93.60;;;;;;4956307;29;20009;-71
2022/05/27 13:14:59;;;;;;;;;;;15.60;93.80;;;;;;4956406;29;19907;-71
2022/05/27 13:17:30;;;;;;;;;;;15.60;93.80;;;;;;4955186;29;19906;-71
2022/05/27 13:20:23;;;;;;;;;;;15.60;93.80;;;;;;4955191;29;19941;-71
2022/05/27 13:22:59;;;;;;;;;;;15.60;93.80;;;;;;4955239;29;20005;-71
2022/05/27 13:25:26;;;;;;;;;;;15.60;93.90;;;;;;4954871;29;19913;-71
2022/05/27 13:27:56;;;;;;;;;;;15.60;93.90;;;;;;4956546;29;19977;-71
2022/05/27 13:30:23;;;;;;;;;;;15.60;93.90;;;;;;4956345;29;19910;-71
2022/05/27 13:33:04;;;;;;;;;;;15.60;93.80;;;;;;4956109;29;19906;-71
2022/05/27 13:35:41;;;;;;;;;;;15.60;93.80;;;;;;4956129;29;19906;-71
2022/05/27 13:38:11;;;;;;;;;;;15.60;93.80;;;;;;4955032;29;19944;-71
2022/05/27 13:40:37;;;;;;;;;;;15.60;93.70;;;;;;4973320;28;19913;-70
2022/05/27 13:43:11;;;;;;;;;;;15.50;93.70;;;;;;4958191;28;20365;-70
2022/05/27 13:45:43;;;;;;;;;;;15.50;93.70;;;;;;4975438;28;19913;-70
2022/05/27 13:48:13;;;;;;;;;;;15.50;93.70;;;;;;4975314;28;19938;-70
2022/05/27 13:50:41;;;;;;;;;;;15.40;93.70;;;;;;4958037;28;19989;-70
2022/05/27 13:53:16;;;;;;;;;;;15.40;93.70;;;;;;4974812;28;19956;-70
2022/05/27 13:55:43;;;;;;;;;;;15.40;93.70;;;;;;4975350;28;20323;-71
2022/05/27 13:58:10;;;;;;;;;;;15.40;93.70;;;;;;4975067;28;20012;-70
2022/05/27 14:00:39;;;;;;;;;;;15.40;93.70;;;;;;4958133;28;19906;-70
2022/05/27 14:03:06;;;;;;;;;;;15.40;93.70;;;;;;4957162;28;19918;-70
2022/05/27 14:05:33;;;;;;;;;;;15.40;93.60;;;;;;4957678;28;20321;-70
2022/05/27 14:08:00;;;;;;;;;;;15.40;93.60;;;;;;4975110;28;20313;-71
2022/05/27 14:10:32;;;;;;;;;;;15.40;93.60;;;;;;4974984;28;20001;-70
2022/05/27 14:12:59;;;;;;;;;;;15.40;93.60;;;;;;4941792;28;19906;-70
2022/05/27 14:15:28;;;;;;;;;;;15.30;93.50;;;;;;4974924;28;19913;-70
2022/05/27 14:17:55;;;;;;;;;;;15.40;93.60;;;;;;4957852;28;19966;-70
2022/05/27 14:23:28;;;;;;;;;;;15.30;93.50;;;;;;4955372;29;19929;-70
2022/05/27 14:25:58;;;;;;;;;;;15.30;93.50;;;;;;4938297;29;19911;-71
2022/05/27 14:28:45;;;;;;;;;;;15.20;93.50;;;;;;4954443;28;20002;-71
2022/05/27 14:31:25;;;;;;;;;;;15.20;93.60;;;;;;4935626;29;19932;-70
2022/05/27 14:33:53;;;;;;;;;;;15.20;93.50;;;;;;4950323;29;19911;-70
2022/05/27 14:36:20;;;;;;;;;;;15.10;93.60;;;;;;4950698;29;20285;-71
2022/05/27 14:38:48;;;;;;;;;;;15.20;93.80;;;;;;4935951;29;19928;-71
2022/05/27 14:41:16;;;;;;;;;;;15.20;93.80;;;;;;4950514;29;19958;-70
2022/05/27 14:43:48;;;;;;;;;;;15.20;93.80;;;;;;4950554;29;19921;-71
2022/05/27 14:46:25;;;;;;;;;;;15.20;93.70;;;;;;4935774;29;19978;-70
2022/05/27 14:48:55;;;;;;;;;;;15.20;93.70;;;;;;4950442;29;19907;-70
2022/05/27 14:51:33;;;;;;;;;;;15.10;93.70;;;;;;4935460;29;19910;-70
2022/05/27 14:54:09;;;;;;;;;;;15.10;93.70;;;;;;4935404;29;19950;-70
2022/05/27 14:56:35;;;;;;;;;;;15.10;93.80;;;;;;4935277;29;19962;-70
2022/05/27 14:59:03;;;;;;;;;;;15.10;93.80;;;;;;4950491;29;19917;-71
2022/05/27 15:01:36;;;;;;;;;;;15.10;93.80;;;;;;4950273;29;19911;-71
2022/05/27 15:04:08;;;;;;;;;;;15.10;93.80;;;;;;4935548;29;19937;-71
2022/05/27 15:06:38;;;;;;;;;;;15.10;93.80;;;;;;4935413;29;19906;-70
2022/05/27 15:09:07;;;;;;;;;;;15.10;93.90;;;;;;4950216;29;19913;-71
2022/05/27 15:11:35;;;;;;;;;;;15.10;93.70;;;;;;4935629;29;20254;-71
2022/05/27 15:14:09;;;;;;;;;;;15.10;93.70;;;;;;4935227;29;19917;-70